Time;durP1;ratioP1;P1;durP2;ratioP2;P2;SDS_P1;SDS_P2;PMS_P1;PMS_P2;Temp;Humidity;BMP_temperature;BMP_pressure;BME280_temperature;BME280_humidity;BME280_pressure;Samples;Min_cycle;Max_cycle;Signal;HPM_P1;HPM_P2
2021/12/28 00:00:19;;;;;;;;;;;8.40;97.40;;;;;;5089767;28;19970;-61
2021/12/28 00:02:46;;;;;;;;;;;8.20;97.30;;;;;;5095208;28;19967;-68
2021/12/28 00:05:12;;;;;;;;;;;8.20;97.20;;;;;;5096157;28;19920;-67
2021/12/28 00:07:37;;;;;;;;;;;8.50;97.30;;;;;;5095548;28;20266;-68
2021/12/28 00:10:03;;;;;;;;;;;8.60;97.30;;;;;;5110296;28;19922;-67
2021/12/28 00:12:32;;;;;;;;;;;8.20;97.10;;;;;;5111095;28;19920;-67
2021/12/28 00:15:07;;;;;;;;;;;8.30;97.10;;;;;;5098547;28;19916;-68
2021/12/28 00:20:17;;;;;;;;;;;8.30;97.00;;;;;;5104146;28;19920;-68
2021/12/28 00:22:42;;;;;;;;;;;8.30;97.00;;;;;;5096738;28;19931;-67
2021/12/28 00:25:10;;;;;;;;;;;;;;;;;;5106012;28;19920;-68
2021/12/28 00:27:36;;;;;;;;;;;8.00;96.90;;;;;;5114346;28;19923;-68
2021/12/28 00:30:03;;;;;;;;;;;;;;;;;;5113638;28;19964;-67
2021/12/28 00:32:28;;;;;;;;;;;8.10;96.90;;;;;;5103381;28;19920;-67
2021/12/28 00:34:54;;;;;;;;;;;8.20;97.00;;;;;;5114568;28;19920;-67
2021/12/28 00:37:20;;;;;;;;;;;8.40;97.00;;;;;;5112893;28;19920;-68
2021/12/28 00:39:45;;;;;;;;;;;8.20;97.00;;;;;;5114171;28;20394;-67
2021/12/28 00:42:11;;;;;;;;;;;8.30;97.10;;;;;;5110560;28;19927;-68
2021/12/28 00:44:36;;;;;;;;;;;8.10;97.00;;;;;;5106781;28;20257;-67
2021/12/28 00:47:02;;;;;;;;;;;8.20;97.00;;;;;;5112348;28;19970;-68
2021/12/28 00:49:28;;;;;;;;;;;8.20;97.10;;;;;;5094260;28;19920;-67
2021/12/28 00:51:55;;;;;;;;;;;8.20;97.00;;;;;;5093655;28;20373;-68
2021/12/28 00:54:20;;;;;;;;;;;8.40;97.00;;;;;;5103650;28;20010;-67
2021/12/28 00:56:46;;;;;;;;;;;8.20;97.10;;;;;;5093941;28;20371;-68
2021/12/28 00:59:12;;;;;;;;;;;8.50;97.10;;;;;;5076573;28;19926;-67
2021/12/28 01:01:37;;;;;;;;;;;8.10;96.90;;;;;;5104018;28;19919;-67
2021/12/28 01:04:03;;;;;;;;;;;8.30;97.00;;;;;;5104662;28;19973;-68
2021/12/28 01:06:29;;;;;;;;;;;8.50;97.00;;;;;;5102025;28;20296;-67
2021/12/28 01:08:54;;;;;;;;;;;8.20;96.90;;;;;;5112221;28;19926;-68
2021/12/28 01:11:20;;;;;;;;;;;8.50;96.90;;;;;;5093366;28;21716;-67
2021/12/28 01:13:46;;;;;;;;;;;8.50;96.90;;;;;;5107908;28;19931;-68
2021/12/28 01:16:13;;;;;;;;;;;8.40;96.90;;;;;;5093625;28;19927;-67
2021/12/28 01:18:42;;;;;;;;;;;8.40;96.80;;;;;;5101450;28;19920;-68
2021/12/28 01:21:08;;;;;;;;;;;8.40;96.80;;;;;;5098044;28;19919;-67
2021/12/28 01:23:34;;;;;;;;;;;8.50;96.80;;;;;;5078998;28;19927;-68
2021/12/28 01:25:59;;;;;;;;;;;8.30;96.70;;;;;;5097342;28;19927;-68
2021/12/28 01:28:25;;;;;;;;;;;8.50;96.60;;;;;;5097560;28;19928;-67
2021/12/28 01:30:50;;;;;;;;;;;8.50;96.60;;;;;;5100222;28;19924;-68
2021/12/28 01:33:16;;;;;;;;;;;8.50;96.50;;;;;;5110648;28;19920;-67
2021/12/28 01:35:42;;;;;;;;;;;8.70;96.50;;;;;;5100592;28;19924;-68
2021/12/28 01:38:07;;;;;;;;;;;8.60;96.40;;;;;;5110517;28;19920;-68
2021/12/28 01:40:34;;;;;;;;;;;8.70;96.40;;;;;;5105597;28;20284;-67
2021/12/28 01:42:59;;;;;;;;;;;8.80;96.40;;;;;;5109817;28;19990;-68
2021/12/28 01:45:38;;;;;;;;;;;8.70;96.40;;;;;;5107823;28;19924;-67
2021/12/28 01:48:05;;;;;;;;;;;8.60;96.40;;;;;;5097344;28;20393;-67
2021/12/28 01:50:31;;;;;;;;;;;;;;;;;;5103454;28;20305;-67
2021/12/28 01:52:56;;;;;;;;;;;8.60;96.30;;;;;;5113439;28;19926;-67
2021/12/28 01:55:22;;;;;;;;;;;8.70;95.90;;;;;;5113157;28;19919;-67
2021/12/28 01:57:48;;;;;;;;;;;8.70;96.30;;;;;;5102970;28;20064;-68
2021/12/28 02:00:13;;;;;;;;;;;8.70;96.30;;;;;;5116967;28;20010;-68
2021/12/28 02:02:39;;;;;;;;;;;;;;;;;;5104844;28;19920;-67
2021/12/28 02:05:05;;;;;;;;;;;8.60;96.30;;;;;;5096574;28;20285;-68
2021/12/28 02:07:31;;;;;;;;;;;8.80;96.40;;;;;;5107499;28;19919;-68
2021/12/28 02:09:56;;;;;;;;;;;8.60;96.30;;;;;;5115413;28;19922;-68
2021/12/28 02:12:22;;;;;;;;;;;8.80;96.30;;;;;;5114909;28;19920;-68
2021/12/28 02:14:48;;;;;;;;;;;8.60;96.20;;;;;;5113648;28;19922;-68
2021/12/28 02:17:14;;;;;;;;;;;8.70;96.20;;;;;;5115162;28;20435;-67
2021/12/28 02:19:40;;;;;;;;;;;8.80;96.20;;;;;;5107810;28;19919;-67
2021/12/28 02:22:07;;;;;;;;;;;;;;;;;;5116521;28;19923;-67
2021/12/28 02:24:33;;;;;;;;;;;8.80;96.20;;;;;;5114691;28;19919;-67
2021/12/28 02:26:58;;;;;;;;;;;8.70;96.10;;;;;;5104374;28;20011;-68
2021/12/28 02:29:24;;;;;;;;;;;8.80;96.20;;;;;;5095368;28;19927;-69
2021/12/28 02:31:55;;;;;;;;;;;8.60;96.10;;;;;;5101135;28;19926;-67
2021/12/28 02:34:24;;;;;;;;;;;8.60;96.00;;;;;;5096055;28;20010;-67
2021/12/28 02:36:50;;;;;;;;;;;8.70;96.10;;;;;;5097789;28;19927;-67
2021/12/28 02:39:16;;;;;;;;;;;8.70;96.10;;;;;;5103124;28;19920;-68
2021/12/28 02:41:41;;;;;;;;;;;9.10;96.20;;;;;;5114788;28;20296;-67
2021/12/28 02:44:07;;;;;;;;;;;8.70;96.10;;;;;;5113529;28;19942;-67
2021/12/28 02:46:33;;;;;;;;;;;9.00;96.20;;;;;;5097270;28;19920;-68
2021/12/28 02:48:58;;;;;;;;;;;8.80;96.10;;;;;;5099455;28;19927;-68
2021/12/28 02:51:24;;;;;;;;;;;8.60;96.10;;;;;;5114013;28;19928;-68
2021/12/28 02:53:49;;;;;;;;;;;9.00;96.40;;;;;;5102857;28;19920;-67
2021/12/28 02:56:16;;;;;;;;;;;8.80;96.50;;;;;;5097478;28;19931;-68
2021/12/28 02:58:42;;;;;;;;;;;8.70;96.50;;;;;;5108473;28;20292;-67
2021/12/28 03:01:09;;;;;;;;;;;8.80;96.50;;;;;;5107833;28;20365;-67
2021/12/28 03:03:35;;;;;;;;;;;8.70;96.60;;;;;;5102525;28;19924;-68
2021/12/28 03:06:01;;;;;;;;;;;8.90;96.50;;;;;;5111763;28;19980;-67
2021/12/28 03:08:27;;;;;;;;;;;8.80;96.40;;;;;;5098968;28;19943;-68
2021/12/28 03:10:53;;;;;;;;;;;8.80;96.40;;;;;;5101887;28;19915;-67
2021/12/28 03:13:20;;;;;;;;;;;9.00;96.40;;;;;;5115732;28;19919;-68
2021/12/28 03:15:46;;;;;;;;;;;8.80;96.30;;;;;;5112266;28;19916;-67
2021/12/28 03:18:11;;;;;;;;;;;8.90;96.30;;;;;;5105378;28;19927;-68
2021/12/28 03:20:37;;;;;;;;;;;8.90;96.30;;;;;;5095333;28;20393;-69
2021/12/28 03:23:03;;;;;;;;;;;;;;;;;;5112168;28;20334;-67
2021/12/28 03:25:29;;;;;;;;;;;9.00;96.30;;;;;;5115409;28;19923;-67
2021/12/28 03:27:55;;;;;;;;;;;8.80;96.20;;;;;;5113849;28;19923;-67
2021/12/28 03:30:20;;;;;;;;;;;8.70;96.20;;;;;;5115333;28;20335;-68
2021/12/28 03:32:46;;;;;;;;;;;8.60;96.10;;;;;;5082186;28;19966;-67
2021/12/28 03:35:12;;;;;;;;;;;8.90;96.20;;;;;;5110816;28;19915;-68
2021/12/28 03:37:38;;;;;;;;;;;9.00;96.20;;;;;;5105982;28;19926;-68
2021/12/28 03:40:04;;;;;;;;;;;8.70;96.20;;;;;;5111986;28;19916;-68
2021/12/28 03:42:30;;;;;;;;;;;8.90;96.20;;;;;;5098735;28;20047;-67
2021/12/28 03:44:55;;;;;;;;;;;8.70;96.20;;;;;;5114579;28;19919;-68
2021/12/28 03:47:21;;;;;;;;;;;8.90;96.30;;;;;;5104753;28;20387;-68
2021/12/28 03:49:47;;;;;;;;;;;8.80;96.30;;;;;;5099846;28;19927;-68
2021/12/28 03:52:13;;;;;;;;;;;;;;;;;;5094540;28;20396;-67
2021/12/28 03:54:38;;;;;;;;;;;8.90;96.30;;;;;;5111323;28;20285;-68
2021/12/28 03:57:04;;;;;;;;;;;9.00;96.40;;;;;;5105999;28;19920;-68
2021/12/28 03:59:30;;;;;;;;;;;;;;;;;;5090031;28;19920;-68
2021/12/28 04:01:56;;;;;;;;;;;8.90;96.30;;;;;;5110637;28;20014;-68
2021/12/28 04:04:21;;;;;;;;;;;9.10;96.40;;;;;;5092702;28;20301;-68
2021/12/28 04:06:47;;;;;;;;;;;9.10;96.40;;;;;;5098784;28;19926;-68
2021/12/28 04:09:20;;;;;;;;;;;8.90;96.40;;;;;;5111790;28;19944;-68
2021/12/28 04:11:45;;;;;;;;;;;8.80;96.40;;;;;;5100856;28;19923;-68
2021/12/28 04:14:11;;;;;;;;;;;9.10;96.50;;;;;;5114293;28;19926;-63
2021/12/28 04:16:36;;;;;;;;;;;8.80;96.40;;;;;;5100315;28;19959;-62
2021/12/28 04:19:03;;;;;;;;;;;8.90;96.40;;;;;;5102427;28;19955;-61
2021/12/28 04:21:29;;;;;;;;;;;;;;;;;;5109501;28;20372;-61
2021/12/28 04:23:55;;;;;;;;;;;8.90;96.00;;;;;;5097556;28;20334;-61
2021/12/28 04:26:21;;;;;;;;;;;8.90;96.40;;;;;;5093968;28;19924;-61
2021/12/28 04:28:46;;;;;;;;;;;8.90;96.40;;;;;;5099371;28;20131;-62
2021/12/28 04:31:12;;;;;;;;;;;8.90;96.40;;;;;;5112569;28;19927;-61
2021/12/28 04:33:38;;;;;;;;;;;9.20;96.40;;;;;;5107993;28;20401;-61
2021/12/28 04:36:04;;;;;;;;;;;;;;;;;;5094249;28;19926;-61
2021/12/28 04:38:29;;;;;;;;;;;8.80;96.30;;;;;;5104498;28;19919;-62
2021/12/28 04:40:55;;;;;;;;;;;9.10;96.40;;;;;;5100067;28;19938;-61
2021/12/28 04:43:21;;;;;;;;;;;9.00;96.40;;;;;;5107939;28;19919;-61
2021/12/28 04:45:46;;;;;;;;;;;9.00;96.40;;;;;;5113334;28;20262;-61
2021/12/28 04:48:12;;;;;;;;;;;9.10;96.60;;;;;;5104853;28;19915;-61
2021/12/28 04:50:39;;;;;;;;;;;9.10;96.60;;;;;;5114038;28;19920;-61
2021/12/28 04:53:09;;;;;;;;;;;9.00;96.60;;;;;;5105674;28;20292;-61
2021/12/28 04:55:34;;;;;;;;;;;8.90;96.50;;;;;;5100334;28;19927;-61
2021/12/28 04:58:00;;;;;;;;;;;9.20;96.60;;;;;;5109360;28;19920;-61
2021/12/28 05:00:25;;;;;;;;;;;9.10;96.60;;;;;;5097863;28;19971;-61
2021/12/28 05:02:51;;;;;;;;;;;8.90;96.50;;;;;;5104243;28;19972;-61
2021/12/28 05:05:17;;;;;;;;;;;9.00;96.50;;;;;;5098835;28;19927;-61
2021/12/28 05:07:42;;;;;;;;;;;9.10;96.60;;;;;;5088962;28;19927;-61
2021/12/28 05:10:08;;;;;;;;;;;9.30;96.60;;;;;;5118602;28;19955;-61
2021/12/28 05:12:34;;;;;;;;;;;9.00;96.60;;;;;;5116601;28;19920;-61
2021/12/28 05:15:00;;;;;;;;;;;9.00;96.60;;;;;;5098437;28;19920;-61
2021/12/28 05:17:26;;;;;;;;;;;9.10;96.60;;;;;;5097826;28;19924;-61
2021/12/28 05:19:51;;;;;;;;;;;9.20;96.60;;;;;;5102660;28;19962;-61
2021/12/28 05:22:17;;;;;;;;;;;9.20;96.70;;;;;;5097329;28;20020;-61
2021/12/28 05:24:43;;;;;;;;;;;8.80;96.60;;;;;;5107182;28;19920;-61
2021/12/28 05:27:08;;;;;;;;;;;9.30;96.80;;;;;;5118062;28;19920;-62
2021/12/28 05:29:34;;;;;;;;;;;9.10;96.80;;;;;;5116177;28;19920;-61
2021/12/28 05:32:00;;;;;;;;;;;8.90;96.80;;;;;;5099902;28;19927;-61
2021/12/28 05:34:25;;;;;;;;;;;9.00;96.90;;;;;;5115111;28;19928;-60
2021/12/28 05:36:51;;;;;;;;;;;9.40;97.10;;;;;;5079009;28;19920;-61
2021/12/28 05:39:16;;;;;;;;;;;9.40;97.20;;;;;;5097896;28;19975;-61
2021/12/28 05:41:42;;;;;;;;;;;9.10;97.20;;;;;;5111702;28;19999;-61
2021/12/28 05:44:08;;;;;;;;;;;;;;;;;;5105608;28;19943;-63
2021/12/28 05:46:34;;;;;;;;;;;9.20;97.30;;;;;;5115623;28;19935;-61
2021/12/28 05:48:59;;;;;;;;;;;9.10;97.20;;;;;;5115467;28;19927;-68
2021/12/28 05:51:25;;;;;;;;;;;9.10;97.00;;;;;;5112300;28;19935;-69
2021/12/28 05:53:50;;;;;;;;;;;9.20;97.00;;;;;;5103300;28;19920;-68
2021/12/28 05:56:16;;;;;;;;;;;9.30;96.90;;;;;;5115071;28;19920;-69
2021/12/28 05:58:41;;;;;;;;;;;9.20;96.90;;;;;;5103578;28;19920;-69
2021/12/28 06:01:07;;;;;;;;;;;9.20;96.90;;;;;;5112878;28;19926;-61
2021/12/28 06:03:33;;;;;;;;;;;9.10;96.90;;;;;;5098341;28;20316;-61
2021/12/28 06:05:58;;;;;;;;;;;9.20;97.00;;;;;;5112340;28;19942;-61
2021/12/28 06:08:24;;;;;;;;;;;9.30;97.00;;;;;;5112772;28;19939;-61
2021/12/28 06:10:49;;;;;;;;;;;9.00;96.90;;;;;;5096668;28;19920;-61
2021/12/28 06:13:15;;;;;;;;;;;9.20;96.90;;;;;;5105971;28;19924;-61
2021/12/28 06:15:41;;;;;;;;;;;9.30;96.90;;;;;;5081823;28;19920;-61
2021/12/28 06:18:06;;;;;;;;;;;9.10;96.80;;;;;;5104460;28;19919;-67
2021/12/28 06:20:32;;;;;;;;;;;9.10;96.90;;;;;;5116998;28;19926;-68
2021/12/28 06:22:58;;;;;;;;;;;;;;;;;;5116319;28;19919;-68
2021/12/28 06:25:24;;;;;;;;;;;;;;;;;;5097406;28;19920;-68
2021/12/28 06:27:50;;;;;;;;;;;9.20;96.90;;;;;;5098352;28;19928;-68
2021/12/28 06:30:15;;;;;;;;;;;9.30;96.90;;;;;;5096539;28;19920;-68
2021/12/28 06:32:41;;;;;;;;;;;9.30;97.00;;;;;;5096480;28;20077;-68
2021/12/28 06:35:07;;;;;;;;;;;9.30;97.00;;;;;;5112889;28;20427;-68
2021/12/28 06:37:33;;;;;;;;;;;9.10;96.90;;;;;;5102465;28;20006;-68
2021/12/28 06:39:59;;;;;;;;;;;9.40;97.10;;;;;;5110557;28;19919;-68
2021/12/28 06:42:24;;;;;;;;;;;9.10;96.90;;;;;;5114783;28;19993;-68
2021/12/28 06:44:52;;;;;;;;;;;9.10;96.80;;;;;;5114768;28;20400;-68
2021/12/28 06:47:18;;;;;;;;;;;9.30;96.90;;;;;;5115920;28;19923;-68
2021/12/28 06:49:45;;;;;;;;;;;9.20;96.80;;;;;;5103179;28;20020;-69
2021/12/28 06:52:11;;;;;;;;;;;;;;;;;;5104833;28;20377;-68
2021/12/28 06:54:37;;;;;;;;;;;9.30;97.20;;;;;;5098071;28;20015;-68
2021/12/28 06:57:04;;;;;;;;;;;9.30;97.20;;;;;;5095946;28;19943;-69
2021/12/28 06:59:30;;;;;;;;;;;9.40;97.30;;;;;;5108957;28;19916;-61
2021/12/28 07:01:58;;;;;;;;;;;9.10;97.20;;;;;;5105212;27;19931;-61
2021/12/28 07:04:24;;;;;;;;;;;;;;;;;;5105572;28;20324;-61
2021/12/28 07:06:49;;;;;;;;;;;9.20;97.10;;;;;;5114626;28;20346;-63
2021/12/28 07:09:16;;;;;;;;;;;9.30;97.20;;;;;;5115787;28;19924;-61
2021/12/28 07:11:42;;;;;;;;;;;9.10;97.30;;;;;;5115370;28;19920;-61
2021/12/28 07:14:07;;;;;;;;;;;9.30;97.40;;;;;;5106298;28;20346;-61
2021/12/28 07:16:33;;;;;;;;;;;9.20;97.40;;;;;;5114858;28;19927;-61
2021/12/28 07:18:59;;;;;;;;;;;9.10;97.40;;;;;;5097994;28;19920;-60
2021/12/28 07:21:24;;;;;;;;;;;9.10;97.40;;;;;;5096538;28;19977;-61
2021/12/28 07:23:50;;;;;;;;;;;9.20;97.50;;;;;;5097446;28;19927;-61
2021/12/28 07:26:16;;;;;;;;;;;9.30;97.60;;;;;;5107891;28;19963;-61
2021/12/28 07:28:41;;;;;;;;;;;9.50;97.60;;;;;;5107053;28;20396;-60
2021/12/28 07:31:07;;;;;;;;;;;9.50;97.60;;;;;;5114999;28;20002;-61
2021/12/28 07:33:33;;;;;;;;;;;9.50;97.60;;;;;;5091219;28;19920;-67
2021/12/28 07:35:58;;;;;;;;;;;9.20;97.50;;;;;;5103054;28;19916;-66
2021/12/28 07:38:24;;;;;;;;;;;9.30;97.50;;;;;;5112810;28;19975;-67
2021/12/28 07:40:50;;;;;;;;;;;9.40;97.60;;;;;;5100002;28;19955;-66
2021/12/28 07:43:15;;;;;;;;;;;9.60;97.70;;;;;;5114376;28;19919;-66
2021/12/28 07:45:41;;;;;;;;;;;9.40;97.60;;;;;;5114577;28;19969;-68
2021/12/28 07:48:07;;;;;;;;;;;9.50;97.60;;;;;;5111843;28;19920;-66
2021/12/28 07:50:32;;;;;;;;;;;9.50;97.60;;;;;;5111409;28;19920;-67
2021/12/28 07:52:58;;;;;;;;;;;;;;;;;;5087159;28;19919;-67
2021/12/28 07:55:24;;;;;;;;;;;9.30;97.60;;;;;;5113136;28;20369;-68
2021/12/28 07:57:50;;;;;;;;;;;9.50;97.60;;;;;;5115256;28;19919;-68
2021/12/28 08:00:16;;;;;;;;;;;9.40;97.50;;;;;;5108715;28;20433;-67
2021/12/28 08:02:43;;;;;;;;;;;9.60;97.60;;;;;;5113132;28;19919;-68
2021/12/28 08:05:09;;;;;;;;;;;9.40;97.50;;;;;;5115099;28;19920;-67
2021/12/28 08:07:34;;;;;;;;;;;9.40;97.60;;;;;;5114974;28;19924;-68
2021/12/28 08:10:00;;;;;;;;;;;9.70;97.60;;;;;;5113663;28;20342;-67
2021/12/28 08:12:26;;;;;;;;;;;9.40;97.50;;;;;;5114147;28;19920;-67
2021/12/28 08:14:52;;;;;;;;;;;9.20;97.50;;;;;;5107740;28;19927;-68
2021/12/28 08:17:17;;;;;;;;;;;9.60;97.60;;;;;;5094490;28;19943;-68
2021/12/28 08:19:43;;;;;;;;;;;9.50;97.40;;;;;;5109798;28;19924;-67
2021/12/28 08:22:08;;;;;;;;;;;9.40;97.40;;;;;;5106056;28;19920;-68
2021/12/28 08:24:34;;;;;;;;;;;9.60;97.40;;;;;;5114437;28;19931;-65
2021/12/28 08:27:00;;;;;;;;;;;9.90;97.40;;;;;;5113633;28;19926;-65
2021/12/28 08:29:26;;;;;;;;;;;9.50;97.30;;;;;;5111785;28;20026;-61
2021/12/28 08:31:51;;;;;;;;;;;9.60;97.20;;;;;;5103113;28;19919;-66
2021/12/28 08:34:17;;;;;;;;;;;9.80;97.10;;;;;;5113613;28;20399;-68
2021/12/28 08:36:43;;;;;;;;;;;9.70;97.20;;;;;;5093232;28;19920;-68
2021/12/28 08:39:09;;;;;;;;;;;9.60;97.30;;;;;;5114549;28;19920;-67
2021/12/28 08:41:34;;;;;;;;;;;9.60;97.40;;;;;;5114577;28;19930;-68
2021/12/28 08:44:00;;;;;;;;;;;9.70;97.40;;;;;;5112750;28;20349;-68
2021/12/28 08:46:25;;;;;;;;;;;9.60;97.40;;;;;;5114047;28;19987;-68
2021/12/28 08:48:51;;;;;;;;;;;9.70;97.10;;;;;;5114183;28;19920;-62
2021/12/28 08:51:17;;;;;;;;;;;9.50;97.40;;;;;;5114069;28;19923;-61
2021/12/28 08:53:43;;;;;;;;;;;9.70;97.50;;;;;;5112721;28;19973;-61
2021/12/28 08:56:09;;;;;;;;;;;;;;;;;;5114061;28;20348;-62
2021/12/28 08:58:34;;;;;;;;;;;9.60;97.50;;;;;;5114372;28;19920;-61
2021/12/28 09:01:01;;;;;;;;;;;10.00;97.50;;;;;;5113967;28;20477;-61
2021/12/28 09:03:27;;;;;;;;;;;;;;;;;;5113995;28;19920;-65
2021/12/28 09:05:52;;;;;;;;;;;9.80;97.60;;;;;;5106791;28;19920;-61
2021/12/28 09:08:19;;;;;;;;;;;9.70;97.70;;;;;;5107041;28;19923;-62
2021/12/28 09:10:45;;;;;;;;;;;9.90;97.70;;;;;;5114244;28;19923;-62
2021/12/28 09:13:11;;;;;;;;;;;9.70;97.80;;;;;;5102127;28;19920;-62
2021/12/28 09:15:37;;;;;;;;;;;9.70;97.70;;;;;;5106206;28;20389;-62
2021/12/28 09:18:02;;;;;;;;;;;9.70;97.70;;;;;;5113916;28;19981;-61
2021/12/28 09:20:28;;;;;;;;;;;9.70;97.80;;;;;;5113852;28;19923;-62
2021/12/28 09:22:56;;;;;;;;;;;9.80;97.80;;;;;;5116348;28;19920;-68
2021/12/28 09:25:21;;;;;;;;;;;9.60;97.70;;;;;;5121950;28;19938;-68
2021/12/28 09:27:47;;;;;;;;;;;9.70;97.70;;;;;;5125830;28;20292;-62
2021/12/28 09:30:13;;;;;;;;;;;9.60;97.70;;;;;;5125731;28;19967;-62
2021/12/28 09:32:39;;;;;;;;;;;9.80;97.80;;;;;;5127549;28;19926;-62
2021/12/28 09:35:05;;;;;;;;;;;;;;;;;;5132530;28;20036;-63
2021/12/28 09:37:33;;;;;;;;;;;9.70;97.70;;;;;;5126865;27;19934;-68
2021/12/28 09:39:59;;;;;;;;;;;9.90;97.80;;;;;;5133860;27;19923;-69
2021/12/28 09:42:24;;;;;;;;;;;9.60;97.70;;;;;;5129439;27;20270;-69
2021/12/28 09:44:51;;;;;;;;;;;9.90;97.80;;;;;;5126999;27;19919;-61
2021/12/28 09:47:17;;;;;;;;;;;9.60;97.70;;;;;;5124006;27;20345;-63
2021/12/28 09:49:43;;;;;;;;;;;9.80;97.80;;;;;;5117331;28;20010;-62
2021/12/28 09:52:08;;;;;;;;;;;9.90;97.90;;;;;;5117363;28;19967;-62
2021/12/28 09:54:34;;;;;;;;;;;9.80;97.90;;;;;;5081556;28;20364;-61
2021/12/28 09:57:00;;;;;;;;;;;9.90;97.90;;;;;;5097865;28;19998;-62
2021/12/28 09:59:27;;;;;;;;;;;9.90;97.80;;;;;;5109699;28;19920;-61
2021/12/28 10:01:52;;;;;;;;;;;10.20;97.90;;;;;;5116799;28;19927;-61
2021/12/28 10:04:18;;;;;;;;;;;9.70;97.90;;;;;;5112573;28;19919;-67
2021/12/28 10:06:44;;;;;;;;;;;9.90;97.90;;;;;;5096987;28;19973;-68
2021/12/28 10:09:12;;;;;;;;;;;10.00;97.90;;;;;;5092531;28;20032;-64
2021/12/28 10:11:39;;;;;;;;;;;9.80;97.90;;;;;;5076615;28;19962;-68
2021/12/28 10:14:18;;;;;;;;;;;10.10;98.00;;;;;;5076780;28;19931;-63
2021/12/28 10:16:44;;;;;;;;;;;;;;;;;;5075999;28;20219;-65
2021/12/28 10:19:28;;;;;;;;;;;10.10;98.00;;;;;;5091770;28;19928;-61
2021/12/28 10:21:54;;;;;;;;;;;10.10;98.00;;;;;;5076028;28;19920;-67
2021/12/28 10:24:34;;;;;;;;;;;9.80;98.00;;;;;;5077147;28;19965;-64
2021/12/28 10:27:08;;;;;;;;;;;10.30;98.20;;;;;;5094125;28;19927;-66
2021/12/28 10:29:33;;;;;;;;;;;10.00;98.10;;;;;;5091812;28;19927;-67
2021/12/28 10:32:17;;;;;;;;;;;9.90;98.00;;;;;;5083339;28;20297;-68
2021/12/28 10:34:44;;;;;;;;;;;10.00;98.10;;;;;;5085974;28;19927;-63
2021/12/28 10:37:27;;;;;;;;;;;10.00;98.10;;;;;;5085163;28;19920;-62
2021/12/28 10:39:54;;;;;;;;;;;10.10;98.20;;;;;;5076679;28;19927;-61
2021/12/28 10:42:38;;;;;;;;;;;10.20;98.10;;;;;;5102474;28;19919;-63
2021/12/28 10:45:05;;;;;;;;;;;10.20;98.10;;;;;;5078516;28;20354;-65
2021/12/28 10:47:30;;;;;;;;;;;10.10;98.10;;;;;;5076249;28;19921;-62
2021/12/28 10:49:59;;;;;;;;;;;10.20;98.20;;;;;;5074712;28;20278;-68
2021/12/28 10:52:28;;;;;;;;;;;10.10;98.10;;;;;;5084249;28;19978;-67
2021/12/28 10:55:13;;;;;;;;;;;10.20;98.10;;;;;;5087271;28;19920;-68
2021/12/28 10:57:39;;;;;;;;;;;10.30;98.30;;;;;;5092310;28;20382;-68
2021/12/28 11:00:25;;;;;;;;;;;10.10;98.20;;;;;;5096208;28;19926;-68
2021/12/28 11:03:11;;;;;;;;;;;10.00;98.30;;;;;;5116211;28;19919;-68
2021/12/28 11:05:37;;;;;;;;;;;10.20;98.30;;;;;;5008603;28;19922;-67
2021/12/28 11:08:04;;;;;;;;;;;10.10;98.30;;;;;;5006461;28;19921;-68
2021/12/28 11:10:29;;;;;;;;;;;10.30;98.30;;;;;;4996215;28;19929;-67
2021/12/28 11:12:55;;;;;;;;;;;10.40;98.40;;;;;;4994263;28;19921;-67
2021/12/28 11:15:24;;;;;;;;;;;10.00;98.30;;;;;;4993853;28;20306;-68
2021/12/28 11:17:50;;;;;;;;;;;10.10;98.30;;;;;;4999387;28;19969;-62
2021/12/28 11:20:16;;;;;;;;;;;10.30;98.40;;;;;;4993585;28;19922;-62
2021/12/28 11:23:02;;;;;;;;;;;10.10;98.40;;;;;;5001479;28;19921;-63
2021/12/28 11:25:28;;;;;;;;;;;10.20;98.40;;;;;;5013046;28;20430;-62
2021/12/28 11:28:13;;;;;;;;;;;10.30;98.50;;;;;;5012009;28;19922;-62
2021/12/28 11:30:38;;;;;;;;;;;10.10;98.40;;;;;;4993693;28;19921;-62
2021/12/28 11:33:05;;;;;;;;;;;10.40;98.50;;;;;;5001059;28;19945;-62
2021/12/28 11:35:30;;;;;;;;;;;10.20;98.40;;;;;;5000385;28;20362;-61
2021/12/28 11:37:56;;;;;;;;;;;10.20;98.50;;;;;;5012065;28;19968;-61
2021/12/28 11:40:22;;;;;;;;;;;10.50;98.60;;;;;;5012287;28;20012;-62
2021/12/28 11:42:47;;;;;;;;;;;10.20;98.50;;;;;;5057652;28;20399;-61
2021/12/28 11:45:13;;;;;;;;;;;10.40;98.60;;;;;;5094662;28;19924;-61
2021/12/28 11:47:39;;;;;;;;;;;;;;;;;;5095046;28;19994;-62
2021/12/28 11:50:08;;;;;;;;;;;10.50;98.80;;;;;;5109511;27;19997;-61
2021/12/28 11:52:34;;;;;;;;;;;10.30;99.00;;;;;;5100338;28;20434;-61
2021/12/28 11:55:00;;;;;;;;;;;10.30;99.20;;;;;;5130275;27;19919;-61
2021/12/28 11:57:27;;;;;;;;;;;10.30;99.20;;;;;;5114983;27;20007;-67
2021/12/28 12:00:08;;;;;;;;;;;10.30;99.20;;;;;;5115054;27;19920;-69
2021/12/28 12:02:38;;;;;;;;;;;10.20;99.30;;;;;;5115346;28;19945;-68
2021/12/28 12:05:12;;;;;;;;;;;10.30;99.40;;;;;;5115111;28;20002;-61
2021/12/28 12:07:39;;;;;;;;;;;10.20;99.40;;;;;;5114857;27;19927;-62
2021/12/28 12:10:06;;;;;;;;;;;10.10;99.40;;;;;;5134801;27;19962;-61
2021/12/28 12:12:33;;;;;;;;;;;10.50;99.50;;;;;;5135475;27;19970;-61
2021/12/28 12:15:01;;;;;;;;;;;10.10;99.40;;;;;;5097754;28;20445;-61
2021/12/28 12:17:39;;;;;;;;;;;10.50;99.60;;;;;;5114544;28;20373;-62
2021/12/28 12:20:07;;;;;;;;;;;10.60;99.50;;;;;;5115927;27;19994;-62
2021/12/28 12:22:37;;;;;;;;;;;10.30;99.50;;;;;;5114377;28;19926;-61
2021/12/28 12:25:10;;;;;;;;;;;10.40;99.50;;;;;;5114789;28;19988;-61
2021/12/28 12:27:39;;;;;;;;;;;10.40;99.30;;;;;;5114366;28;19916;-62
2021/12/28 12:30:17;;;;;;;;;;;10.40;99.40;;;;;;5108540;27;19931;-65
2021/12/28 12:33:01;;;;;;;;;;;10.10;99.50;;;;;;5093982;28;19923;-64
2021/12/28 12:35:34;;;;;;;;;;;10.20;99.70;;;;;;5094842;28;20284;-67
2021/12/28 12:38:00;;;;;;;;;;;10.60;99.80;;;;;;5096155;28;19920;-69
2021/12/28 12:40:45;;;;;;;;;;;10.60;99.80;;;;;;5109566;28;19920;-66
2021/12/28 12:43:11;;;;;;;;;;;10.40;99.80;;;;;;5094129;28;20357;-65
2021/12/28 12:45:56;;;;;;;;;;;10.60;99.90;;;;;;5101184;28;19919;-60
2021/12/28 12:48:31;;;;;;;;;;;10.10;99.50;;;;;;5090839;28;19919;-61
2021/12/28 12:51:15;;;;;;;;;;;10.50;99.70;;;;;;5033648;28;20278;-61
2021/12/28 12:53:41;;;;;;;;;;;;;;;;;;5028962;28;19971;-61
2021/12/28 12:56:07;;;;;;;;;;;;;;;;;;5033870;28;19921;-61
2021/12/28 12:58:40;;;;;;;;;;;10.40;99.70;;;;;;5033915;28;19921;-61
2021/12/28 13:01:06;;;;;;;;;;;10.20;99.60;;;;;;5033401;28;19968;-61
2021/12/28 13:03:33;;;;;;;;;;;10.40;99.70;;;;;;5032568;28;19968;-61
2021/12/28 13:06:00;;;;;;;;;;;10.40;99.90;;;;;;5033818;28;19954;-61
2021/12/28 13:08:25;;;;;;;;;;;10.30;99.90;;;;;;5035198;28;20354;-61
2021/12/28 13:10:51;;;;;;;;;;;10.40;99.90;;;;;;5033477;28;19921;-61
2021/12/28 13:13:17;;;;;;;;;;;10.50;99.90;;;;;;5023124;28;20008;-61
2021/12/28 13:15:42;;;;;;;;;;;10.30;99.90;;;;;;5017826;28;20264;-61
2021/12/28 13:18:08;;;;;;;;;;;10.50;99.90;;;;;;5035536;28;20421;-61
2021/12/28 13:20:34;;;;;;;;;;;10.50;99.90;;;;;;5048968;28;19924;-61
2021/12/28 13:23:01;;;;;;;;;;;10.40;99.90;;;;;;5047955;28;20071;-61
2021/12/28 13:25:33;;;;;;;;;;;10.60;99.90;;;;;;5037499;28;19928;-61
2021/12/28 13:28:00;;;;;;;;;;;10.50;99.90;;;;;;5036570;28;19920;-60
2021/12/28 13:30:27;;;;;;;;;;;10.50;99.90;;;;;;5034319;28;19920;-61
2021/12/28 13:32:53;;;;;;;;;;;10.50;99.90;;;;;;5057021;28;19921;-61
2021/12/28 13:35:19;;;;;;;;;;;10.10;99.90;;;;;;5057019;28;19921;-61
2021/12/28 13:37:49;;;;;;;;;;;10.60;99.90;;;;;;5019268;28;19921;-68
2021/12/28 13:40:19;;;;;;;;;;;10.60;99.90;;;;;;5037751;28;19975;-68
2021/12/28 13:42:46;;;;;;;;;;;10.70;99.90;;;;;;5037150;28;19925;-62
2021/12/28 13:45:11;;;;;;;;;;;10.30;99.90;;;;;;5024691;28;19921;-61
2021/12/28 13:47:38;;;;;;;;;;;10.60;99.90;;;;;;5017037;28;20386;-61
2021/12/28 13:50:05;;;;;;;;;;;10.70;99.90;;;;;;5027571;28;20028;-61
2021/12/28 13:52:40;;;;;;;;;;;10.80;99.90;;;;;;5039981;28;20263;-61
2021/12/28 13:55:06;;;;;;;;;;;10.70;99.90;;;;;;5019072;28;19928;-61
2021/12/28 13:57:32;;;;;;;;;;;10.70;99.90;;;;;;5019021;28;19925;-61
2021/12/28 13:59:58;;;;;;;;;;;10.80;99.90;;;;;;5033396;28;19917;-61
2021/12/28 14:02:24;;;;;;;;;;;10.50;99.90;;;;;;5031645;28;20210;-67
2021/12/28 14:04:50;;;;;;;;;;;10.60;99.90;;;;;;5036851;28;19928;-71
2021/12/28 14:07:15;;;;;;;;;;;10.60;99.90;;;;;;5039057;28;19921;-70
2021/12/28 14:09:41;;;;;;;;;;;10.50;99.90;;;;;;5036084;28;20003;-70
2021/12/28 14:12:08;;;;;;;;;;;10.60;99.90;;;;;;5022718;28;19921;-72
2021/12/28 14:14:35;;;;;;;;;;;10.60;99.90;;;;;;5009250;28;19921;-69
2021/12/28 14:17:05;;;;;;;;;;;10.30;99.90;;;;;;5031429;28;19921;-66
2021/12/28 14:19:31;;;;;;;;;;;10.60;99.90;;;;;;5018784;28;19928;-67
2021/12/28 14:21:57;;;;;;;;;;;;;;;;;;5044317;28;20012;-68
2021/12/28 14:24:26;;;;;;;;;;;10.50;99.90;;;;;;5023598;28;19921;-61
2021/12/28 14:26:52;;;;;;;;;;;10.50;99.90;;;;;;5035501;28;19929;-68
2021/12/28 14:29:22;;;;;;;;;;;10.70;99.90;;;;;;5034259;28;20000;-60
2021/12/28 14:31:49;;;;;;;;;;;10.50;99.90;;;;;;5036016;28;19975;-60
2021/12/28 14:34:15;;;;;;;;;;;;;;;;;;5040138;28;20286;-67